createdAt,value
2022-12-03T00:02:23.527Z,89.12
2022-12-03T00:04:50.788Z,88.60
2022-12-03T00:07:18.036Z,89.38
2022-12-03T00:09:44.936Z,88.88
2022-12-03T00:12:12.064Z,89.82
2022-12-03T00:14:44.409Z,89.28
2022-12-03T00:17:11.670Z,89.50
2022-12-03T00:19:38.689Z,89.33
2022-12-03T00:22:05.498Z,89.25
2022-12-03T00:24:32.439Z,89.40
2022-12-03T00:26:59.477Z,89.07
2022-12-03T00:29:26.353Z,89.27
2022-12-03T00:31:53.394Z,89.19
2022-12-03T00:34:20.569Z,89.36
2022-12-03T00:36:47.462Z,89.13
2022-12-03T00:39:18.593Z,89.04
2022-12-03T00:41:45.449Z,89.37
2022-12-03T00:44:12.465Z,89.65
2022-12-03T00:46:39.519Z,89.54
2022-12-03T00:49:06.760Z,88.19
2022-12-03T00:51:33.649Z,88.64
2022-12-03T00:54:00.717Z,88.49
2022-12-03T00:56:27.679Z,88.35
2022-12-03T00:58:54.555Z,89.21
2022-12-03T01:01:21.542Z,89.35
2022-12-03T01:03:53.807Z,89.16
2022-12-03T01:06:20.675Z,89.03
2022-12-03T01:08:47.596Z,88.68
2022-12-03T01:11:32.823Z,89.12
2022-12-03T01:13:59.912Z,89.30
2022-12-03T01:16:26.749Z,88.83
2022-12-03T01:18:53.784Z,89.05
2022-12-03T01:21:20.786Z,89.33
2022-12-03T01:23:47.656Z,89.33
2022-12-03T01:26:14.630Z,88.64
2022-12-03T01:28:44.169Z,90.29
2022-12-03T01:31:29.549Z,89.72
2022-12-03T01:33:56.608Z,89.91
2022-12-03T01:36:23.453Z,90.66
2022-12-03T01:38:50.252Z,89.30
2022-12-03T01:41:18.788Z,89.42
2022-12-03T01:43:46.525Z,89.05
2022-12-03T01:46:26.334Z,89.55
2022-12-03T01:48:55.892Z,90.22
2022-12-03T01:51:23.457Z,89.85
2022-12-03T01:53:50.815Z,90.22
2022-12-03T01:56:18.891Z,89.00
2022-12-03T01:58:48.711Z,89.74
2022-12-03T02:01:19.028Z,90.58
2022-12-03T02:03:46.798Z,90.04
2022-12-03T02:06:19.354Z,90.34
2022-12-03T02:08:47.994Z,90.31
2022-12-03T02:11:35.541Z,89.67
2022-12-03T02:14:05.587Z,89.07
2022-12-03T02:16:36.264Z,89.48
2022-12-03T02:19:05.302Z,89.45
2022-12-03T02:21:47.756Z,89.63
2022-12-03T02:24:28.756Z,90.28
2022-12-03T02:26:55.566Z,90.13
2022-12-03T02:29:23.423Z,90.66
2022-12-03T02:31:50.486Z,90.04
2022-12-03T02:34:40.688Z,89.44
2022-12-03T02:37:14.909Z,90.01
2022-12-03T02:39:50.290Z,90.01
2022-12-03T02:42:37.754Z,90.36
2022-12-03T02:45:39.867Z,89.92
2022-12-03T02:48:23.930Z,89.85
2022-12-03T02:50:53.696Z,89.78
2022-12-03T02:53:27.886Z,90.13
2022-12-03T02:55:57.631Z,89.29
2022-12-03T02:58:25.688Z,89.40
2022-12-03T03:00:54.288Z,89.19
2022-12-03T03:03:22.811Z,89.37
2022-12-03T03:05:50.831Z,89.33
2022-12-03T03:08:19.120Z,89.29
2022-12-03T03:10:47.756Z,88.85
2022-12-03T03:13:16.882Z,88.91
2022-12-03T03:15:44.199Z,88.59
2022-12-03T03:18:13.646Z,88.39
2022-12-03T03:20:41.300Z,87.96
2022-12-03T03:23:11.006Z,88.50
2022-12-03T03:25:44.405Z,88.53
2022-12-03T03:28:12.603Z,88.22
2022-12-03T03:30:41.548Z,88.26
2022-12-03T03:33:09.635Z,88.43
2022-12-03T03:35:37.523Z,88.48
2022-12-03T03:38:05.427Z,88.50
2022-12-03T03:40:32.797Z,88.22
2022-12-03T03:43:00.718Z,88.10
2022-12-03T03:45:29.626Z,87.85
2022-12-03T03:47:59.458Z,87.90
2022-12-03T03:50:29.565Z,88.27
2022-12-03T03:52:57.707Z,88.42
2022-12-03T03:55:24.917Z,88.48
2022-12-03T03:57:51.940Z,89.06
2022-12-03T04:00:19.355Z,88.63
2022-12-03T04:02:46.641Z,88.25
2022-12-03T04:05:19.592Z,88.49
2022-12-03T04:07:47.334Z,89.74
2022-12-03T04:10:34.277Z,88.92
2022-12-03T04:13:01.436Z,88.66
2022-12-03T04:15:28.396Z,87.29
2022-12-03T04:18:14.289Z,88.35
2022-12-03T04:20:41.543Z,88.34
2022-12-03T04:23:08.933Z,88.37
2022-12-03T04:25:54.562Z,88.70
2022-12-03T04:28:39.977Z,88.68
2022-12-03T04:31:28.196Z,88.61
2022-12-03T04:34:13.870Z,88.33
2022-12-03T04:36:40.951Z,88.54
2022-12-03T04:39:07.775Z,87.97
2022-12-03T04:41:34.592Z,87.34
2022-12-03T04:44:20.333Z,87.93
2022-12-03T04:46:47.216Z,88.69
2022-12-03T04:49:14.073Z,88.42
2022-12-03T04:51:40.953Z,88.60
2022-12-03T04:54:08.095Z,89.26
2022-12-03T04:56:35.003Z,88.66
2022-12-03T04:59:01.985Z,89.05
2022-12-03T05:01:29.171Z,88.88
2022-12-03T05:03:56.235Z,88.95
2022-12-03T05:06:23.207Z,88.53
2022-12-03T05:08:50.075Z,87.72
2022-12-03T05:11:16.936Z,88.18
2022-12-03T05:13:43.877Z,88.37
2022-12-03T05:16:10.845Z,88.24
2022-12-03T05:18:38.053Z,88.51
2022-12-03T05:21:05.333Z,88.84
2022-12-03T05:23:32.194Z,88.15
2022-12-03T05:25:59.327Z,88.43
2022-12-03T05:28:26.456Z,88.51
2022-12-03T05:30:53.341Z,88.61
2022-12-03T05:33:20.720Z,88.59
2022-12-03T05:35:47.868Z,88.11
2022-12-03T05:38:14.899Z,89.01
2022-12-03T05:40:42.064Z,89.05
2022-12-03T05:43:09.045Z,88.82
2022-12-03T05:45:40.811Z,89.08
2022-12-03T05:48:10.614Z,88.74
2022-12-03T05:50:39.653Z,88.44
2022-12-03T05:53:07.102Z,88.73
2022-12-03T05:55:33.894Z,88.47
2022-12-03T05:58:01.140Z,88.72
2022-12-03T06:00:30.933Z,88.83
2022-12-03T06:02:58.577Z,88.80
2022-12-03T06:05:25.872Z,88.72
2022-12-03T06:07:53.197Z,88.99
2022-12-03T06:10:23.835Z,88.90
2022-12-03T06:12:51.436Z,88.88
2022-12-03T06:15:19.096Z,89.08
2022-12-03T06:17:46.345Z,89.18
2022-12-03T06:20:15.578Z,89.38
2022-12-03T06:22:45.074Z,88.88
2022-12-03T06:25:12.841Z,88.40
2022-12-03T06:27:40.003Z,88.96
2022-12-03T06:30:09.016Z,88.72
2022-12-03T06:32:36.025Z,89.34
2022-12-03T06:35:03.592Z,88.76
2022-12-03T06:37:30.467Z,88.29
2022-12-03T06:39:57.843Z,87.44
2022-12-03T06:42:24.856Z,87.75
2022-12-03T06:44:52.548Z,88.53
2022-12-03T06:47:19.715Z,87.84
2022-12-03T06:49:46.553Z,88.63
2022-12-03T06:52:13.644Z,88.63
2022-12-03T06:54:40.484Z,87.71
2022-12-03T06:57:07.433Z,88.28
2022-12-03T06:59:36.494Z,88.00
2022-12-03T07:02:04.467Z,86.16
2022-12-03T07:04:33.565Z,87.06
2022-12-03T07:07:00.597Z,86.95
2022-12-03T07:09:27.716Z,87.32
2022-12-03T07:11:54.832Z,87.22
2022-12-03T07:14:21.930Z,86.33
2022-12-03T07:16:48.816Z,86.33
2022-12-03T07:19:15.869Z,85.57
2022-12-03T07:21:43.476Z,86.01
2022-12-03T07:24:10.713Z,86.61
2022-12-03T07:26:37.662Z,85.77
2022-12-03T07:29:05.686Z,86.33
2022-12-03T07:31:32.961Z,86.62
2022-12-03T07:34:00.105Z,85.73
2022-12-03T07:36:27.002Z,86.06
2022-12-03T07:38:53.834Z,85.98
2022-12-03T07:41:21.017Z,86.03
2022-12-03T07:43:50.744Z,84.95
2022-12-03T07:46:17.717Z,83.01
2022-12-03T07:48:45.027Z,81.05
2022-12-03T07:51:15.195Z,80.50
2022-12-03T07:53:42.720Z,83.34
2022-12-03T07:56:09.955Z,82.30
2022-12-03T07:58:37.136Z,82.80
2022-12-03T08:01:04.114Z,84.58
2022-12-03T08:03:31.014Z,85.05
2022-12-03T08:05:57.841Z,86.32
2022-12-03T08:08:25.474Z,85.93
2022-12-03T08:10:52.451Z,85.69
2022-12-03T08:13:19.727Z,86.47
2022-12-03T08:15:46.993Z,85.97
2022-12-03T08:18:19.795Z,86.81
2022-12-03T08:20:49.035Z,86.23
2022-12-03T08:23:22.977Z,86.43
2022-12-03T08:25:51.978Z,86.60
2022-12-03T08:28:24.255Z,86.36
2022-12-03T08:31:12.677Z,85.51
2022-12-03T08:33:40.642Z,84.44
2022-12-03T08:36:23.666Z,83.93
2022-12-03T08:39:02.364Z,84.40
2022-12-03T08:41:48.754Z,82.35
2022-12-03T08:44:24.664Z,78.57
2022-12-03T08:47:23.765Z,77.63
2022-12-03T08:50:01.583Z,77.69
2022-12-03T08:52:33.843Z,75.89
2022-12-03T08:55:11.223Z,74.97
2022-12-03T08:57:38.059Z,74.52
2022-12-03T09:00:22.167Z,73.19
2022-12-03T09:02:52.504Z,73.79
2022-12-03T09:05:21.228Z,75.41
2022-12-03T09:07:48.281Z,76.44
2022-12-03T09:10:15.805Z,75.58
2022-12-03T09:12:42.850Z,75.85
2022-12-03T09:15:10.237Z,75.54
2022-12-03T09:17:37.588Z,76.16
2022-12-03T09:20:05.875Z,75.76
2022-12-03T09:22:32.916Z,74.11
2022-12-03T09:24:59.738Z,72.88
2022-12-03T09:27:27.044Z,75.12
2022-12-03T09:29:54.096Z,72.96
2022-12-03T09:32:21.041Z,72.20
2022-12-03T09:34:48.172Z,73.55
2022-12-03T09:37:15.028Z,72.86
2022-12-03T09:39:41.941Z,72.54
2022-12-03T09:42:09.594Z,72.93
2022-12-03T09:44:38.154Z,74.49
2022-12-03T09:47:06.025Z,74.32
2022-12-03T09:49:35.865Z,76.01
2022-12-03T09:52:05.605Z,74.95
2022-12-03T09:54:33.312Z,73.56
2022-12-03T09:57:03.537Z,72.27
2022-12-03T09:59:33.770Z,73.27
2022-12-03T10:02:01.984Z,72.88
2022-12-03T10:04:30.474Z,74.48
2022-12-03T10:06:59.805Z,75.02
2022-12-03T10:09:29.689Z,73.03
2022-12-03T10:12:00.216Z,73.05
2022-12-03T10:14:28.605Z,72.51
2022-12-03T10:16:55.980Z,72.37
2022-12-03T10:19:26.574Z,72.94
2022-12-03T10:21:53.796Z,72.80
2022-12-03T10:24:29.990Z,72.41
2022-12-03T10:26:59.804Z,73.12
2022-12-03T10:29:35.966Z,72.30
2022-12-03T10:32:07.395Z,73.62
2022-12-03T10:34:42.556Z,75.13
2022-12-03T10:37:22.737Z,74.11
2022-12-03T10:40:10.861Z,73.40
2022-12-03T10:42:40.636Z,73.96
2022-12-03T10:45:23.085Z,74.25
2022-12-03T10:48:07.590Z,73.73
2022-12-03T10:50:35.481Z,71.70
2022-12-03T10:53:02.671Z,74.59
2022-12-03T10:55:34.496Z,73.97
2022-12-03T10:58:01.446Z,72.52
2022-12-03T11:00:28.358Z,72.67
2022-12-03T11:02:57.228Z,72.37
2022-12-03T11:05:28.669Z,72.42
2022-12-03T11:07:56.627Z,72.04
2022-12-03T11:10:24.421Z,73.27
2022-12-03T11:13:28.752Z,74.22
2022-12-03T11:15:56.819Z,74.35
2022-12-03T11:18:39.302Z,73.38
2022-12-03T11:21:12.865Z,73.90
2022-12-03T11:23:45.872Z,73.63
2022-12-03T11:26:39.276Z,73.45
2022-12-03T11:29:14.909Z,73.26
2022-12-03T11:31:49.020Z,74.64
2022-12-03T11:34:20.034Z,75.00
2022-12-03T11:37:12.100Z,75.78
2022-12-03T11:39:45.392Z,76.04
2022-12-03T11:42:25.641Z,76.58
2022-12-03T11:45:04.920Z,75.71
2022-12-03T11:47:39.895Z,75.18
2022-12-03T11:50:39.102Z,77.08
2022-12-03T11:53:17.755Z,77.19
2022-12-03T11:55:49.287Z,76.03
2022-12-03T11:58:30.681Z,75.91
2022-12-03T12:00:59.969Z,76.17
2022-12-03T12:03:32.862Z,75.76
2022-12-03T12:06:07.860Z,77.89
2022-12-03T12:08:37.064Z,78.68
2022-12-03T12:11:04.678Z,78.56
2022-12-03T12:13:31.839Z,77.58
2022-12-03T12:16:00.455Z,78.35
2022-12-03T12:18:37.154Z,78.49
2022-12-03T12:21:22.562Z,78.59
2022-12-03T12:23:52.024Z,78.56
2022-12-03T12:26:19.161Z,78.13
2022-12-03T12:28:46.153Z,77.86
2022-12-03T12:31:13.162Z,78.95
2022-12-03T12:33:40.793Z,78.74
2022-12-03T12:36:11.006Z,78.38
2022-12-03T12:38:41.536Z,78.72
2022-12-03T12:41:10.356Z,78.04
2022-12-03T12:43:39.963Z,78.24
2022-12-03T12:46:46.014Z,77.82
2022-12-03T12:49:01.295Z,78.55
2022-12-03T12:51:28.347Z,78.26
2022-12-03T12:53:59.874Z,77.92
2022-12-03T12:56:31.806Z,78.34
2022-12-03T12:59:20.724Z,77.93
2022-12-03T13:01:49.712Z,77.30
2022-12-03T13:04:24.523Z,77.69
2022-12-03T13:06:54.274Z,77.11
2022-12-03T13:09:27.498Z,77.32
2022-12-03T13:11:57.293Z,77.81
2022-12-03T13:14:27.413Z,77.52
2022-12-03T13:16:57.514Z,77.85
2022-12-03T13:19:43.590Z,77.67
2022-12-03T13:22:23.219Z,77.85
2022-12-03T13:24:51.955Z,78.35
2022-12-03T13:27:19.642Z,78.52
2022-12-03T13:29:58.725Z,78.26
2022-12-03T13:32:34.572Z,77.70
2022-12-03T13:35:10.506Z,78.71
2022-12-03T13:37:38.935Z,79.12
2022-12-03T13:40:36.073Z,78.63
2022-12-03T13:43:19.189Z,78.81
2022-12-03T13:45:51.635Z,78.63
2022-12-03T13:48:30.527Z,78.83
2022-12-03T13:51:02.695Z,78.94
2022-12-03T13:53:35.445Z,79.14
2022-12-03T13:56:36.549Z,78.89
2022-12-03T13:59:04.554Z,78.57
2022-12-03T14:01:31.517Z,80.39
2022-12-03T14:03:59.097Z,79.07
2022-12-03T14:06:26.546Z,77.84
2022-12-03T14:08:55.014Z,78.69
2022-12-03T14:11:40.597Z,79.30
2022-12-03T14:14:07.666Z,79.46
2022-12-03T14:16:34.598Z,79.29
2022-12-03T14:19:01.634Z,78.81
2022-12-03T14:21:28.650Z,78.72
2022-12-03T14:23:55.749Z,79.61
2022-12-03T14:26:23.549Z,79.47
2022-12-03T14:28:50.840Z,79.61
2022-12-03T14:31:18.843Z,79.36
2022-12-03T14:33:45.724Z,79.37
2022-12-03T14:36:13.508Z,79.51
2022-12-03T14:38:40.421Z,79.84
2022-12-03T14:41:28.304Z,79.92
2022-12-03T14:43:55.349Z,80.19
2022-12-03T14:46:23.013Z,80.39
2022-12-03T14:48:50.337Z,80.21
2022-12-03T14:51:17.835Z,80.10
2022-12-03T14:53:45.477Z,80.45
2022-12-03T14:56:13.873Z,80.82
2022-12-03T14:58:40.901Z,80.94
2022-12-03T15:01:08.022Z,81.33
2022-12-03T15:03:36.434Z,80.62
2022-12-03T15:06:05.533Z,80.78
2022-12-03T15:08:32.685Z,80.44
2022-12-03T15:10:59.966Z,80.87
2022-12-03T15:13:27.766Z,81.31
2022-12-03T15:15:54.815Z,81.40
2022-12-03T15:18:21.985Z,81.68
2022-12-03T15:20:50.357Z,82.16
2022-12-03T15:23:17.359Z,81.69
2022-12-03T15:25:45.485Z,82.20
2022-12-03T15:28:12.964Z,82.67
2022-12-03T15:30:40.444Z,82.47
2022-12-03T15:33:07.557Z,82.51
2022-12-03T15:35:34.904Z,82.84
2022-12-03T15:38:02.061Z,82.49
2022-12-03T15:40:29.233Z,83.13
2022-12-03T15:42:56.082Z,83.32
2022-12-03T15:45:25.355Z,83.20
2022-12-03T15:47:52.232Z,83.09
2022-12-03T15:50:19.075Z,83.87
2022-12-03T15:52:46.050Z,83.70
2022-12-03T15:55:13.433Z,83.52
2022-12-03T15:57:40.469Z,83.97
2022-12-03T16:00:10.691Z,84.07
2022-12-03T16:02:38.100Z,84.02
2022-12-03T16:05:13.030Z,83.78
2022-12-03T16:07:40.616Z,84.00
2022-12-03T16:10:11.470Z,83.78
2022-12-03T16:12:38.545Z,83.68
2022-12-03T16:15:06.720Z,84.22
2022-12-03T16:17:33.830Z,83.44
2022-12-03T16:20:00.886Z,83.59
2022-12-03T16:22:29.560Z,82.25
2022-12-03T16:24:57.584Z,82.77
2022-12-03T16:27:25.974Z,82.96
2022-12-03T16:29:54.181Z,82.94
2022-12-03T16:32:22.855Z,83.04
2022-12-03T16:34:50.992Z,82.28
2022-12-03T16:37:17.967Z,82.11
2022-12-03T16:39:47.177Z,81.82
2022-12-03T16:42:17.454Z,82.68
2022-12-03T16:45:03.287Z,81.35
2022-12-03T16:47:34.179Z,81.06
2022-12-03T16:50:04.881Z,81.59
2022-12-03T16:52:31.812Z,81.55
2022-12-03T16:55:00.045Z,82.18
2022-12-03T16:57:33.113Z,82.31
2022-12-03T17:00:01.084Z,82.18
2022-12-03T17:02:28.341Z,82.89
2022-12-03T17:04:55.785Z,82.45
2022-12-03T17:07:23.526Z,82.50
2022-12-03T17:09:50.586Z,83.64
2022-12-03T17:12:17.668Z,82.35
2022-12-03T17:14:44.569Z,82.13
2022-12-03T17:17:11.426Z,85.28
2022-12-03T17:19:38.482Z,83.73
2022-12-03T17:22:05.425Z,83.92
2022-12-03T17:24:32.431Z,84.06
2022-12-03T17:26:59.496Z,83.75
2022-12-03T17:29:26.649Z,83.96
2022-12-03T17:31:53.729Z,83.05
2022-12-03T17:34:20.641Z,83.93
2022-12-03T17:36:47.580Z,83.92
2022-12-03T17:39:14.762Z,84.93
2022-12-03T17:41:41.895Z,84.69
2022-12-03T17:44:11.361Z,85.21
2022-12-03T17:46:40.070Z,85.34
2022-12-03T17:49:07.335Z,85.17
2022-12-03T17:51:34.228Z,84.54
2022-12-03T17:54:01.636Z,84.67
2022-12-03T17:56:29.107Z,85.21
2022-12-03T17:58:57.375Z,84.89
2022-12-03T18:01:24.660Z,85.24
2022-12-03T18:03:52.011Z,84.50
2022-12-03T18:06:19.030Z,84.87
2022-12-03T18:08:46.262Z,85.21
2022-12-03T18:11:13.407Z,84.45
2022-12-03T18:13:40.597Z,85.06
2022-12-03T18:16:07.821Z,84.70
2022-12-03T18:18:35.015Z,85.01
2022-12-03T18:21:04.328Z,84.80
2022-12-03T18:23:32.411Z,85.34
2022-12-03T18:25:59.929Z,85.51
2022-12-03T18:28:26.943Z,85.36
2022-12-03T18:30:54.255Z,84.57
2022-12-03T18:33:23.729Z,84.63
2022-12-03T18:35:54.539Z,85.78
2022-12-03T18:38:23.029Z,86.10
2022-12-03T18:40:53.571Z,85.33
2022-12-03T18:43:20.611Z,85.79
2022-12-03T18:45:48.011Z,85.78
2022-12-03T18:48:18.428Z,86.38
2022-12-03T18:50:47.109Z,85.03
2022-12-03T18:53:16.541Z,85.11
2022-12-03T18:55:45.931Z,84.87
2022-12-03T18:58:13.968Z,84.14
2022-12-03T19:00:45.373Z,84.41
2022-12-03T19:03:15.057Z,84.00
2022-12-03T19:05:42.165Z,84.01
2022-12-03T19:08:15.943Z,83.56
2022-12-03T19:10:43.850Z,84.16
2022-12-03T19:13:12.209Z,84.00
2022-12-03T19:15:40.050Z,83.81
2022-12-03T19:18:08.930Z,82.98
2022-12-03T19:20:35.990Z,83.18
2022-12-03T19:23:03.230Z,82.40
2022-12-03T19:25:31.145Z,82.87
2022-12-03T19:27:58.257Z,82.70
2022-12-03T19:30:27.550Z,83.39
2022-12-03T19:32:57.003Z,83.17
2022-12-03T19:35:24.425Z,82.99
2022-12-03T19:37:51.733Z,82.24
2022-12-03T19:40:19.281Z,82.88
2022-12-03T19:42:46.184Z,83.20
2022-12-03T19:45:13.235Z,82.96
2022-12-03T19:47:40.423Z,81.76
2022-12-03T19:50:09.893Z,81.84
2022-12-03T19:52:37.305Z,82.40
2022-12-03T19:55:05.278Z,82.79
2022-12-03T19:57:32.181Z,82.37
2022-12-03T19:59:59.220Z,82.81
2022-12-03T20:02:26.557Z,83.09
2022-12-03T20:04:53.538Z,82.79
2022-12-03T20:07:20.704Z,83.24
2022-12-03T20:09:50.778Z,83.47
2022-12-03T20:12:17.696Z,83.50
2022-12-03T20:14:45.739Z,83.17
2022-12-03T20:17:12.824Z,83.41
2022-12-03T20:19:40.131Z,82.56
2022-12-03T20:22:07.332Z,82.54
2022-12-03T20:24:34.232Z,82.39
2022-12-03T20:27:02.479Z,82.45
2022-12-03T20:29:29.624Z,82.01
2022-12-03T20:31:56.732Z,82.28
2022-12-03T20:34:26.849Z,82.74
2022-12-03T20:36:53.947Z,81.97
2022-12-03T20:39:21.895Z,81.76
2022-12-03T20:41:48.870Z,81.75
2022-12-03T20:44:16.244Z,81.72
2022-12-03T20:46:43.301Z,82.03
2022-12-03T20:49:10.220Z,81.47
2022-12-03T20:51:37.364Z,80.98
2022-12-03T20:54:04.402Z,80.72
2022-12-03T20:56:34.895Z,81.54
2022-12-03T20:59:07.874Z,81.79
2022-12-03T21:01:36.532Z,82.85
2022-12-03T21:04:05.049Z,83.46
2022-12-03T21:06:34.349Z,84.75
2022-12-03T21:09:01.848Z,84.43
2022-12-03T21:11:31.743Z,84.45
2022-12-03T21:13:59.886Z,83.92
2022-12-03T21:16:59.421Z,82.77
2022-12-03T21:19:18.479Z,83.50
2022-12-03T21:21:45.481Z,83.42
2022-12-03T21:24:13.574Z,82.81
2022-12-03T21:26:41.371Z,82.11
2022-12-03T21:29:08.957Z,81.92
2022-12-03T21:31:37.687Z,82.21
2022-12-03T21:34:05.463Z,81.71
2022-12-03T21:36:33.084Z,81.97
2022-12-03T21:39:01.264Z,82.17
2022-12-03T21:41:28.386Z,82.07
2022-12-03T21:43:55.794Z,82.38
2022-12-03T21:47:11.972Z,82.78
2022-12-03T21:49:09.864Z,83.04
2022-12-03T21:51:36.765Z,82.71
2022-12-03T21:54:03.703Z,82.81
2022-12-03T21:56:32.180Z,82.51
2022-12-03T21:58:59.114Z,82.54
2022-12-03T22:01:26.275Z,82.73
2022-12-03T22:03:53.324Z,82.93
2022-12-03T22:06:20.385Z,82.29
2022-12-03T22:08:47.933Z,83.08
2022-12-03T22:11:20.352Z,82.68
2022-12-03T22:13:47.606Z,83.57
2022-12-03T22:16:17.845Z,83.17
2022-12-03T22:18:45.843Z,83.02
2022-12-03T22:21:16.266Z,84.09
2022-12-03T22:23:43.841Z,83.03
2022-12-03T22:26:17.085Z,82.95
2022-12-03T22:28:48.379Z,84.07
2022-12-03T22:33:32.667Z,83.72
2022-12-03T22:36:02.266Z,83.44
2022-12-03T22:38:30.678Z,83.48
2022-12-03T22:40:58.458Z,84.11
2022-12-03T22:43:25.746Z,84.55
2022-12-03T22:45:56.371Z,84.63
2022-12-03T22:48:24.164Z,84.04
2022-12-03T22:50:52.705Z,84.73
2022-12-03T22:53:20.624Z,84.41
2022-12-03T22:55:58.896Z,84.31
2022-12-03T22:58:27.258Z,83.78
2022-12-03T23:00:59.806Z,83.20
2022-12-03T23:03:29.651Z,83.30
2022-12-03T23:05:57.756Z,83.60
2022-12-03T23:08:24.773Z,83.63
2022-12-03T23:10:52.926Z,83.86
2022-12-03T23:13:20.768Z,83.42
2022-12-03T23:15:49.636Z,84.32
2022-12-03T23:18:17.107Z,84.51
2022-12-03T23:20:54.965Z,83.85
2022-12-03T23:23:24.826Z,85.22
2022-12-03T23:26:02.666Z,84.84
2022-12-03T23:28:32.672Z,84.83
2022-12-03T23:30:59.904Z,84.46
2022-12-03T23:33:27.999Z,85.54
2022-12-03T23:35:55.302Z,84.83
2022-12-03T23:38:22.358Z,84.89
2022-12-03T23:40:49.497Z,84.67
2022-12-03T23:43:16.842Z,85.00
2022-12-03T23:45:43.848Z,85.36
2022-12-03T23:48:11.043Z,84.84
2022-12-03T23:50:41.557Z,85.11
2022-12-03T23:53:08.585Z,85.04
2022-12-03T23:55:39.350Z,85.08
2022-12-03T23:58:06.196Z,84.41
